sensor_id;sensor_type;location;lat;lon;timestamp;noise_LAeq;noise_LA_min;noise_LA_max;noise_LA01;noise_LA95
67294;Laerm;58160;51.434;5.978;2023-02-01T00:00:04;44.80;34.10;58.71;;
67294;Laerm;58160;51.434;5.978;2023-02-01T00:00:15;45.38;35.59;58.97;;
67294;Laerm;58160;51.434;5.978;2023-02-01T00:00:25;39.51;32.21;51.41;;
67294;Laerm;58160;51.434;5.978;2023-02-01T00:00:36;42.47;33.22;55.14;;
67294;Laerm;58160;51.434;5.978;2023-02-01T00:00:46;43.21;32.70;55.75;;
67294;Laerm;58160;51.434;5.978;2023-02-01T00:00:56;38.04;30.89;51.41;;
67294;Laerm;58160;51.434;5.978;2023-02-01T00:01:07;35.80;31.41;48.05;;
67294;Laerm;58160;51.434;5.978;2023-02-01T00:01:18;40.35;32.03;52.92;;
67294;Laerm;58160;51.434;5.978;2023-02-01T00:01:28;45.90;32.16;60.16;;
67294;Laerm;58160;51.434;5.978;2023-02-01T00:01:38;46.62;31.60;58.86;;
67294;Laerm;58160;51.434;5.978;2023-02-01T00:01:49;35.66;31.12;49.74;;
67294;Laerm;58160;51.434;5.978;2023-02-01T00:01:59;45.40;32.51;59.66;;
67294;Laerm;58160;51.434;5.978;2023-02-01T00:02:10;47.65;33.45;61.12;;
67294;Laerm;58160;51.434;5.978;2023-02-01T00:02:20;38.61;31.53;50.19;;
67294;Laerm;58160;51.434;5.978;2023-02-01T00:02:30;40.66;31.69;56.41;;
67294;Laerm;58160;51.434;5.978;2023-02-01T00:02:41;46.18;32.58;59.51;;
67294;Laerm;58160;51.434;5.978;2023-02-01T00:02:51;43.02;31.44;55.22;;
67294;Laerm;58160;51.434;5.978;2023-02-01T00:03:01;39.18;33.04;51.92;;
67294;Laerm;58160;51.434;5.978;2023-02-01T00:03:11;53.60;34.02;69.72;;
67294;Laerm;58160;51.434;5.978;2023-02-01T00:03:23;41.26;32.82;53.18;;
67294;Laerm;58160;51.434;5.978;2023-02-01T00:03:33;38.63;32.29;48.08;;
67294;Laerm;58160;51.434;5.978;2023-02-01T00:03:43;36.28;32.50;47.35;;
67294;Laerm;58160;51.434;5.978;2023-02-01T00:03:54;34.22;32.47;36.35;;
67294;Laerm;58160;51.434;5.978;2023-02-01T00:04:04;42.00;33.71;55.03;;
67294;Laerm;58160;51.434;5.978;2023-02-01T00:04:14;47.44;33.39;66.80;;
67294;Laerm;58160;51.434;5.978;2023-02-01T00:04:25;54.93;38.47;68.68;;
67294;Laerm;58160;51.434;5.978;2023-02-01T00:04:35;39.24;32.36;53.66;;
67294;Laerm;58160;51.434;5.978;2023-02-01T00:04:45;42.19;32.46;52.16;;
67294;Laerm;58160;51.434;5.978;2023-02-01T00:04:56;43.86;33.45;54.36;;
67294;Laerm;58160;51.434;5.978;2023-02-01T00:05:09;43.21;32.89;52.91;;
67294;Laerm;58160;51.434;5.978;2023-02-01T00:05:20;39.96;32.31;51.02;;
67294;Laerm;58160;51.434;5.978;2023-02-01T00:05:30;40.50;32.32;49.70;;
67294;Laerm;58160;51.434;5.978;2023-02-01T00:05:40;42.64;34.95;52.09;;
67294;Laerm;58160;51.434;5.978;2023-02-01T00:05:54;51.32;33.66;63.70;;
67294;Laerm;58160;51.434;5.978;2023-02-01T00:06:05;49.89;33.65;63.25;;
67294;Laerm;58160;51.434;5.978;2023-02-01T00:06:15;46.68;33.33;57.30;;
67294;Laerm;58160;51.434;5.978;2023-02-01T00:06:25;40.79;33.00;54.03;;
67294;Laerm;58160;51.434;5.978;2023-02-01T00:06:36;40.10;31.75;53.60;;
67294;Laerm;58160;51.434;5.978;2023-02-01T00:06:46;39.14;31.80;49.03;;
67294;Laerm;58160;51.434;5.978;2023-02-01T00:06:57;37.05;31.40;46.87;;
67294;Laerm;58160;51.434;5.978;2023-02-01T00:07:07;36.38;31.80;44.12;;
67294;Laerm;58160;51.434;5.978;2023-02-01T00:07:17;36.06;31.80;47.18;;
67294;Laerm;58160;51.434;5.978;2023-02-01T00:07:27;35.51;31.40;43.93;;
67294;Laerm;58160;51.434;5.978;2023-02-01T00:07:38;34.21;31.10;43.87;;
67294;Laerm;58160;51.434;5.978;2023-02-01T00:07:48;39.94;32.32;50.23;;
67294;Laerm;58160;51.434;5.978;2023-02-01T00:07:59;38.78;33.43;49.62;;
67294;Laerm;58160;51.434;5.978;2023-02-01T00:08:09;37.89;32.20;49.40;;
67294;Laerm;58160;51.434;5.978;2023-02-01T00:08:19;37.70;32.79;51.11;;
67294;Laerm;58160;51.434;5.978;2023-02-01T00:08:30;51.20;33.18;70.71;;
67294;Laerm;58160;51.434;5.978;2023-02-01T00:08:40;54.56;33.64;69.13;;
67294;Laerm;58160;51.434;5.978;2023-02-01T00:08:53;43.09;32.54;55.95;;
67294;Laerm;58160;51.434;5.978;2023-02-01T00:09:04;41.16;31.96;55.80;;
67294;Laerm;58160;51.434;5.978;2023-02-01T00:09:15;37.10;31.07;44.88;;
67294;Laerm;58160;51.434;5.978;2023-02-01T00:09:25;33.69;30.47;43.91;;
67294;Laerm;58160;51.434;5.978;2023-02-01T00:09:35;34.55;31.08;44.65;;
67294;Laerm;58160;51.434;5.978;2023-02-01T00:09:45;33.79;30.64;40.92;;
67294;Laerm;58160;51.434;5.978;2023-02-01T00:09:56;36.40;31.63;49.39;;
67294;Laerm;58160;51.434;5.978;2023-02-01T00:10:06;36.38;32.45;45.05;;
67294;Laerm;58160;51.434;5.978;2023-02-01T00:10:17;36.58;31.35;48.51;;
67294;Laerm;58160;51.434;5.978;2023-02-01T00:10:27;40.07;32.23;51.40;;
67294;Laerm;58160;51.434;5.978;2023-02-01T00:10:38;39.88;33.53;54.01;;
67294;Laerm;58160;51.434;5.978;2023-02-01T00:10:48;35.32;31.15;48.48;;
67294;Laerm;58160;51.434;5.978;2023-02-01T00:10:59;33.72;31.01;42.71;;
67294;Laerm;58160;51.434;5.978;2023-02-01T00:11:10;34.84;30.79;45.24;;
67294;Laerm;58160;51.434;5.978;2023-02-01T00:11:21;39.27;31.36;53.54;;
67294;Laerm;58160;51.434;5.978;2023-02-01T00:11:32;42.84;31.68;56.57;;
67294;Laerm;58160;51.434;5.978;2023-02-01T00:11:42;44.33;31.66;59.27;;
67294;Laerm;58160;51.434;5.978;2023-02-01T00:11:52;34.11;31.05;42.52;;
67294;Laerm;58160;51.434;5.978;2023-02-01T00:12:02;37.28;30.95;48.57;;
67294;Laerm;58160;51.434;5.978;2023-02-01T00:12:13;39.30;31.65;50.03;;
67294;Laerm;58160;51.434;5.978;2023-02-01T00:12:23;37.74;31.63;52.59;;
67294;Laerm;58160;51.434;5.978;2023-02-01T00:12:34;35.81;30.70;46.27;;
67294;Laerm;58160;51.434;5.978;2023-02-01T00:12:45;39.94;31.77;53.34;;
67294;Laerm;58160;51.434;5.978;2023-02-01T00:12:55;39.94;31.43;53.81;;
67294;Laerm;58160;51.434;5.978;2023-02-01T00:13:05;37.34;31.30;48.16;;
67294;Laerm;58160;51.434;5.978;2023-02-01T00:13:16;36.34;31.03;50.02;;
67294;Laerm;58160;51.434;5.978;2023-02-01T00:13:29;42.46;31.66;55.66;;
67294;Laerm;58160;51.434;5.978;2023-02-01T00:13:41;42.97;31.69;58.84;;
67294;Laerm;58160;51.434;5.978;2023-02-01T00:13:51;34.76;31.51;43.41;;
67294;Laerm;58160;51.434;5.978;2023-02-01T00:14:02;43.11;32.23;55.38;;
67294;Laerm;58160;51.434;5.978;2023-02-01T00:14:12;38.17;31.54;49.36;;
67294;Laerm;58160;51.434;5.978;2023-02-01T00:14:23;38.63;31.43;49.07;;
67294;Laerm;58160;51.434;5.978;2023-02-01T00:14:33;37.31;31.55;50.25;;
67294;Laerm;58160;51.434;5.978;2023-02-01T00:14:48;36.46;30.87;46.85;;
67294;Laerm;58160;51.434;5.978;2023-02-01T00:14:58;39.70;31.50;53.96;;
67294;Laerm;58160;51.434;5.978;2023-02-01T00:15:09;36.79;31.62;45.43;;
67294;Laerm;58160;51.434;5.978;2023-02-01T00:15:19;37.45;31.20;47.08;;
67294;Laerm;58160;51.434;5.978;2023-02-01T00:15:30;36.83;31.04;47.69;;
67294;Laerm;58160;51.434;5.978;2023-02-01T00:15:41;36.49;31.20;45.17;;
67294;Laerm;58160;51.434;5.978;2023-02-01T00:15:51;35.91;30.96;46.25;;
67294;Laerm;58160;51.434;5.978;2023-02-01T00:16:02;34.98;31.17;43.07;;
67294;Laerm;58160;51.434;5.978;2023-02-01T00:16:25;34.72;30.88;43.83;;
67294;Laerm;58160;51.434;5.978;2023-02-01T00:16:36;34.35;30.75;44.21;;
67294;Laerm;58160;51.434;5.978;2023-02-01T00:16:46;34.04;30.72;44.42;;
67294;Laerm;58160;51.434;5.978;2023-02-01T00:16:56;36.82;30.79;51.71;;
67294;Laerm;58160;51.434;5.978;2023-02-01T00:17:06;35.79;30.71;48.07;;
67294;Laerm;58160;51.434;5.978;2023-02-01T00:17:17;32.95;30.41;40.34;;
67294;Laerm;58160;51.434;5.978;2023-02-01T00:17:27;32.85;30.41;38.25;;
67294;Laerm;58160;51.434;5.978;2023-02-01T00:17:37;32.59;30.37;41.70;;
67294;Laerm;58160;51.434;5.978;2023-02-01T00:17:48;33.94;30.35;41.33;;
67294;Laerm;58160;51.434;5.978;2023-02-01T00:17:58;38.79;30.68;52.65;;
67294;Laerm;58160;51.434;5.978;2023-02-01T00:18:08;32.98;30.80;40.10;;
67294;Laerm;58160;51.434;5.978;2023-02-01T00:18:18;32.09;30.13;40.92;;
67294;Laerm;58160;51.434;5.978;2023-02-01T00:18:29;31.62;30.23;35.47;;
67294;Laerm;58160;51.434;5.978;2023-02-01T00:18:39;32.71;30.91;38.59;;
67294;Laerm;58160;51.434;5.978;2023-02-01T00:18:50;31.88;30.42;35.45;;
67294;Laerm;58160;51.434;5.978;2023-02-01T00:19:05;34.36;30.92;41.59;;
67294;Laerm;58160;51.434;5.978;2023-02-01T00:19:16;34.91;30.80;44.14;;
67294;Laerm;58160;51.434;5.978;2023-02-01T00:19:26;33.43;31.08;44.41;;
67294;Laerm;58160;51.434;5.978;2023-02-01T00:19:36;33.59;30.62;40.35;;
67294;Laerm;58160;51.434;5.978;2023-02-01T00:19:47;32.71;30.45;40.77;;
67294;Laerm;58160;51.434;5.978;2023-02-01T00:19:57;40.96;31.32;54.14;;
67294;Laerm;58160;51.434;5.978;2023-02-01T00:20:07;38.13;31.90;50.38;;
67294;Laerm;58160;51.434;5.978;2023-02-01T00:20:18;39.39;32.10;49.50;;
67294;Laerm;58160;51.434;5.978;2023-02-01T00:20:28;35.74;31.01;47.93;;
67294;Laerm;58160;51.434;5.978;2023-02-01T00:20:38;35.40;30.98;44.55;;
67294;Laerm;58160;51.434;5.978;2023-02-01T00:20:49;35.65;31.00;46.04;;
67294;Laerm;58160;51.434;5.978;2023-02-01T00:20:59;34.34;30.89;44.09;;
67294;Laerm;58160;51.434;5.978;2023-02-01T00:21:10;33.40;30.46;42.77;;
67294;Laerm;58160;51.434;5.978;2023-02-01T00:21:21;33.72;30.82;42.99;;
67294;Laerm;58160;51.434;5.978;2023-02-01T00:21:31;34.08;30.99;38.41;;
67294;Laerm;58160;51.434;5.978;2023-02-01T00:21:42;34.21;32.04;39.01;;
67294;Laerm;58160;51.434;5.978;2023-02-01T00:21:53;33.33;31.03;35.92;;
67294;Laerm;58160;51.434;5.978;2023-02-01T00:22:04;33.33;31.31;37.52;;
67294;Laerm;58160;51.434;5.978;2023-02-01T00:22:14;33.24;30.91;39.52;;
67294;Laerm;58160;51.434;5.978;2023-02-01T00:22:24;41.84;31.75;53.38;;
67294;Laerm;58160;51.434;5.978;2023-02-01T00:22:35;38.44;31.89;49.27;;
67294;Laerm;58160;51.434;5.978;2023-02-01T00:22:45;35.04;30.23;48.56;;
67294;Laerm;58160;51.434;5.978;2023-02-01T00:22:55;33.84;30.73;44.02;;
67294;Laerm;58160;51.434;5.978;2023-02-01T00:23:05;34.59;30.70;45.31;;
67294;Laerm;58160;51.434;5.978;2023-02-01T00:23:17;37.28;30.99;47.76;;
67294;Laerm;58160;51.434;5.978;2023-02-01T00:23:28;33.85;30.36;41.08;;
67294;Laerm;58160;51.434;5.978;2023-02-01T00:23:38;33.05;30.67;38.61;;
67294;Laerm;58160;51.434;5.978;2023-02-01T00:23:51;36.63;30.76;50.47;;
67294;Laerm;58160;51.434;5.978;2023-02-01T00:24:01;34.42;30.93;44.51;;
67294;Laerm;58160;51.434;5.978;2023-02-01T00:24:17;35.54;30.45;44.97;;
67294;Laerm;58160;51.434;5.978;2023-02-01T00:24:28;34.08;30.42;43.05;;
67294;Laerm;58160;51.434;5.978;2023-02-01T00:24:38;34.13;30.61;42.13;;
67294;Laerm;58160;51.434;5.978;2023-02-01T00:24:48;35.01;30.45;46.93;;
67294;Laerm;58160;51.434;5.978;2023-02-01T00:24:59;33.18;30.52;44.48;;
67294;Laerm;58160;51.434;5.978;2023-02-01T00:25:09;31.39;29.94;35.67;;
67294;Laerm;58160;51.434;5.978;2023-02-01T00:25:19;31.44;30.01;35.30;;
67294;Laerm;58160;51.434;5.978;2023-02-01T00:25:31;34.34;30.39;45.70;;
67294;Laerm;58160;51.434;5.978;2023-02-01T00:25:41;33.84;30.24;45.87;;
67294;Laerm;58160;51.434;5.978;2023-02-01T00:25:51;35.27;30.68;46.02;;
67294;Laerm;58160;51.434;5.978;2023-02-01T00:26:03;33.22;30.07;44.03;;
67294;Laerm;58160;51.434;5.978;2023-02-01T00:26:17;31.76;30.13;40.46;;
67294;Laerm;58160;51.434;5.978;2023-02-01T00:26:41;33.97;30.11;44.70;;
67294;Laerm;58160;51.434;5.978;2023-02-01T00:26:52;35.85;30.79;47.17;;
67294;Laerm;58160;51.434;5.978;2023-02-01T00:27:02;35.20;30.22;48.60;;
67294;Laerm;58160;51.434;5.978;2023-02-01T00:27:12;31.62;30.03;37.48;;
67294;Laerm;58160;51.434;5.978;2023-02-01T00:27:27;31.47;30.11;35.74;;
67294;Laerm;58160;51.434;5.978;2023-02-01T00:27:37;31.36;29.91;35.39;;
67294;Laerm;58160;51.434;5.978;2023-02-01T00:27:48;32.58;30.48;43.45;;
67294;Laerm;58160;51.434;5.978;2023-02-01T00:27:59;31.50;30.36;35.32;;
67294;Laerm;58160;51.434;5.978;2023-02-01T00:28:10;31.43;30.29;33.66;;
67294;Laerm;58160;51.434;5.978;2023-02-01T00:28:22;31.34;30.30;32.54;;
67294;Laerm;58160;51.434;5.978;2023-02-01T00:28:33;31.40;29.87;32.63;;
67294;Laerm;58160;51.434;5.978;2023-02-01T00:28:44;34.29;30.21;43.03;;
67294;Laerm;58160;51.434;5.978;2023-02-01T00:28:54;31.63;30.05;39.49;;
67294;Laerm;58160;51.434;5.978;2023-02-01T00:29:05;31.59;30.28;35.21;;
67294;Laerm;58160;51.434;5.978;2023-02-01T00:29:17;31.43;30.26;33.25;;
67294;Laerm;58160;51.434;5.978;2023-02-01T00:29:28;32.04;30.63;33.96;;
67294;Laerm;58160;51.434;5.978;2023-02-01T00:29:38;32.01;30.08;34.01;;
67294;Laerm;58160;51.434;5.978;2023-02-01T00:29:48;31.24;30.05;33.33;;
67294;Laerm;58160;51.434;5.978;2023-02-01T00:29:59;31.70;30.03;38.52;;
67294;Laerm;58160;51.434;5.978;2023-02-01T00:30:09;31.40;29.95;36.79;;
67294;Laerm;58160;51.434;5.978;2023-02-01T00:30:20;30.96;29.99;32.69;;
67294;Laerm;58160;51.434;5.978;2023-02-01T00:30:30;30.89;29.86;31.92;;
67294;Laerm;58160;51.434;5.978;2023-02-01T00:30:40;31.00;29.94;32.31;;
67294;Laerm;58160;51.434;5.978;2023-02-01T00:30:57;31.40;30.06;33.04;;
67294;Laerm;58160;51.434;5.978;2023-02-01T00:31:07;35.20;30.37;47.59;;
67294;Laerm;58160;51.434;5.978;2023-02-01T00:31:18;31.33;29.87;34.32;;
67294;Laerm;58160;51.434;5.978;2023-02-01T00:31:28;31.94;30.42;39.43;;
67294;Laerm;58160;51.434;5.978;2023-02-01T00:31:38;35.93;31.19;45.41;;
67294;Laerm;58160;51.434;5.978;2023-02-01T00:31:49;35.79;30.75;44.52;;
67294;Laerm;58160;51.434;5.978;2023-02-01T00:32:00;34.86;30.27;44.21;;
67294;Laerm;58160;51.434;5.978;2023-02-01T00:32:10;31.62;30.34;37.79;;
67294;Laerm;58160;51.434;5.978;2023-02-01T00:32:20;31.45;29.91;37.40;;
67294;Laerm;58160;51.434;5.978;2023-02-01T00:32:31;31.24;29.94;34.97;;
67294;Laerm;58160;51.434;5.978;2023-02-01T00:32:41;31.90;30.20;36.58;;
67294;Laerm;58160;51.434;5.978;2023-02-01T00:32:52;36.21;30.41;49.99;;
67294;Laerm;58160;51.434;5.978;2023-02-01T00:33:02;36.81;30.92;48.97;;
67294;Laerm;58160;51.434;5.978;2023-02-01T00:33:12;32.13;29.96;39.68;;
67294;Laerm;58160;51.434;5.978;2023-02-01T00:33:23;31.37;30.14;32.88;;
67294;Laerm;58160;51.434;5.978;2023-02-01T00:33:33;31.98;30.54;34.59;;
67294;Laerm;58160;51.434;5.978;2023-02-01T00:33:46;31.97;30.35;35.21;;
67294;Laerm;58160;51.434;5.978;2023-02-01T00:33:57;31.62;30.44;33.46;;
67294;Laerm;58160;51.434;5.978;2023-02-01T00:34:09;31.65;29.73;32.93;;
67294;Laerm;58160;51.434;5.978;2023-02-01T00:34:21;31.63;30.42;35.79;;
67294;Laerm;58160;51.434;5.978;2023-02-01T00:34:31;34.99;30.29;48.95;;
67294;Laerm;58160;51.434;5.978;2023-02-01T00:34:41;31.89;30.00;38.08;;
67294;Laerm;58160;51.434;5.978;2023-02-01T00:34:52;31.68;30.60;34.76;;
67294;Laerm;58160;51.434;5.978;2023-02-01T00:35:02;33.50;30.30;40.93;;
67294;Laerm;58160;51.434;5.978;2023-02-01T00:35:12;31.26;30.09;32.98;;
67294;Laerm;58160;51.434;5.978;2023-02-01T00:35:23;31.07;30.08;32.29;;
67294;Laerm;58160;51.434;5.978;2023-02-01T00:35:33;31.10;30.07;31.94;;
67294;Laerm;58160;51.434;5.978;2023-02-01T00:35:44;31.09;29.59;32.12;;
67294;Laerm;58160;51.434;5.978;2023-02-01T00:35:57;31.32;30.26;32.87;;
67294;Laerm;58160;51.434;5.978;2023-02-01T00:36:08;31.07;29.73;32.16;;
67294;Laerm;58160;51.434;5.978;2023-02-01T00:36:19;31.17;30.14;32.06;;
67294;Laerm;58160;51.434;5.978;2023-02-01T00:36:29;32.51;29.86;41.70;;
67294;Laerm;58160;51.434;5.978;2023-02-01T00:36:40;34.03;30.40;43.55;;
67294;Laerm;58160;51.434;5.978;2023-02-01T00:36:51;32.88;30.48;40.26;;
67294;Laerm;58160;51.434;5.978;2023-02-01T00:37:01;31.71;30.28;34.30;;
67294;Laerm;58160;51.434;5.978;2023-02-01T00:37:11;31.41;30.32;33.92;;
67294;Laerm;58160;51.434;5.978;2023-02-01T00:37:22;31.35;30.28;33.08;;
67294;Laerm;58160;51.434;5.978;2023-02-01T00:37:33;32.73;30.17;42.00;;
67294;Laerm;58160;51.434;5.978;2023-02-01T00:37:43;32.53;30.44;39.01;;
67294;Laerm;58160;51.434;5.978;2023-02-01T00:37:53;32.64;30.34;41.04;;
67294;Laerm;58160;51.434;5.978;2023-02-01T00:38:04;31.82;30.08;39.24;;
67294;Laerm;58160;51.434;5.978;2023-02-01T00:38:14;31.27;30.12;33.99;;
67294;Laerm;58160;51.434;5.978;2023-02-01T00:38:25;31.08;30.11;32.74;;
67294;Laerm;58160;51.434;5.978;2023-02-01T00:38:36;31.96;29.89;38.13;;
67294;Laerm;58160;51.434;5.978;2023-02-01T00:38:47;31.53;30.03;33.98;;
67294;Laerm;58160;51.434;5.978;2023-02-01T00:38:57;34.02;30.59;43.41;;
67294;Laerm;58160;51.434;5.978;2023-02-01T00:39:08;31.41;30.16;33.41;;
67294;Laerm;58160;51.434;5.978;2023-02-01T00:39:18;31.44;30.16;33.45;;
67294;Laerm;58160;51.434;5.978;2023-02-01T00:39:29;31.94;30.43;35.37;;
67294;Laerm;58160;51.434;5.978;2023-02-01T00:39:39;31.76;30.39;35.75;;
67294;Laerm;58160;51.434;5.978;2023-02-01T00:39:49;31.92;30.32;34.42;;
67294;Laerm;58160;51.434;5.978;2023-02-01T00:40:00;31.16;30.01;32.54;;
67294;Laerm;58160;51.434;5.978;2023-02-01T00:40:10;33.65;30.02;46.05;;
67294;Laerm;58160;51.434;5.978;2023-02-01T00:40:21;33.17;30.82;44.38;;
67294;Laerm;58160;51.434;5.978;2023-02-01T00:40:31;37.36;30.62;49.83;;
67294;Laerm;58160;51.434;5.978;2023-02-01T00:40:41;38.88;31.38;50.98;;
67294;Laerm;58160;51.434;5.978;2023-02-01T00:40:51;32.85;30.51;42.03;;
67294;Laerm;58160;51.434;5.978;2023-02-01T00:41:03;32.88;30.61;41.03;;
67294;Laerm;58160;51.434;5.978;2023-02-01T00:41:14;36.37;30.85;48.84;;
67294;Laerm;58160;51.434;5.978;2023-02-01T00:41:25;32.68;30.62;41.29;;
67294;Laerm;58160;51.434;5.978;2023-02-01T00:41:36;31.68;30.29;34.56;;
67294;Laerm;58160;51.434;5.978;2023-02-01T00:41:46;31.94;30.43;38.55;;
67294;Laerm;58160;51.434;5.978;2023-02-01T00:41:56;31.92;30.23;34.77;;
67294;Laerm;58160;51.434;5.978;2023-02-01T00:42:07;38.93;30.60;54.18;;
67294;Laerm;58160;51.434;5.978;2023-02-01T00:42:17;33.52;30.29;41.02;;
67294;Laerm;58160;51.434;5.978;2023-02-01T00:42:27;32.30;30.41;38.67;;
67294;Laerm;58160;51.434;5.978;2023-02-01T00:42:38;31.39;30.27;33.81;;
67294;Laerm;58160;51.434;5.978;2023-02-01T00:42:48;31.44;30.31;33.64;;
67294;Laerm;58160;51.434;5.978;2023-02-01T00:42:58;31.60;30.32;35.33;;
67294;Laerm;58160;51.434;5.978;2023-02-01T00:43:08;31.71;30.18;37.55;;
67294;Laerm;58160;51.434;5.978;2023-02-01T00:43:19;31.48;30.06;33.63;;
67294;Laerm;58160;51.434;5.978;2023-02-01T00:43:30;31.19;30.13;32.41;;
67294;Laerm;58160;51.434;5.978;2023-02-01T00:43:41;31.87;30.48;36.33;;
67294;Laerm;58160;51.434;5.978;2023-02-01T00:43:51;33.53;30.08;42.44;;
67294;Laerm;58160;51.434;5.978;2023-02-01T00:44:02;32.75;30.14;41.29;;
67294;Laerm;58160;51.434;5.978;2023-02-01T00:44:12;32.52;30.05;43.13;;
67294;Laerm;58160;51.434;5.978;2023-02-01T00:44:23;31.67;30.13;38.52;;
67294;Laerm;58160;51.434;5.978;2023-02-01T00:44:33;37.41;30.57;51.01;;
67294;Laerm;58160;51.434;5.978;2023-02-01T00:44:45;32.12;30.00;38.02;;
67294;Laerm;58160;51.434;5.978;2023-02-01T00:44:55;34.21;30.34;45.39;;
67294;Laerm;58160;51.434;5.978;2023-02-01T00:45:06;33.78;30.31;43.43;;
67294;Laerm;58160;51.434;5.978;2023-02-01T00:45:16;32.57;30.07;42.30;;
67294;Laerm;58160;51.434;5.978;2023-02-01T00:45:26;31.55;30.01;35.89;;
67294;Laerm;58160;51.434;5.978;2023-02-01T00:45:36;31.30;30.17;33.06;;
67294;Laerm;58160;51.434;5.978;2023-02-01T00:45:47;32.17;30.20;38.16;;
67294;Laerm;58160;51.434;5.978;2023-02-01T00:45:57;34.10;30.40;44.59;;
67294;Laerm;58160;51.434;5.978;2023-02-01T00:46:08;31.09;30.06;32.00;;
67294;Laerm;58160;51.434;5.978;2023-02-01T00:46:19;31.06;29.47;32.28;;
67294;Laerm;58160;51.434;5.978;2023-02-01T00:46:30;31.27;29.89;38.71;;
67294;Laerm;58160;51.434;5.978;2023-02-01T00:46:40;33.25;30.45;44.66;;
67294;Laerm;58160;51.434;5.978;2023-02-01T00:46:50;32.60;30.37;40.21;;
67294;Laerm;58160;51.434;5.978;2023-02-01T00:47:01;31.08;29.98;32.65;;
67294;Laerm;58160;51.434;5.978;2023-02-01T00:47:11;31.33;30.30;33.95;;
67294;Laerm;58160;51.434;5.978;2023-02-01T00:47:21;31.68;30.56;34.13;;
67294;Laerm;58160;51.434;5.978;2023-02-01T00:47:32;31.71;30.50;35.80;;
67294;Laerm;58160;51.434;5.978;2023-02-01T00:47:42;37.91;30.81;52.90;;
67294;Laerm;58160;51.434;5.978;2023-02-01T00:47:52;34.08;30.71;45.25;;
67294;Laerm;58160;51.434;5.978;2023-02-01T00:48:06;33.78;30.82;41.82;;
67294;Laerm;58160;51.434;5.978;2023-02-01T00:48:16;31.83;30.68;35.24;;
67294;Laerm;58160;51.434;5.978;2023-02-01T00:48:26;32.10;30.50;37.59;;
67294;Laerm;58160;51.434;5.978;2023-02-01T00:48:37;31.73;30.13;36.39;;
67294;Laerm;58160;51.434;5.978;2023-02-01T00:48:48;33.36;30.62;40.15;;
67294;Laerm;58160;51.434;5.978;2023-02-01T00:48:58;33.68;31.27;41.91;;
67294;Laerm;58160;51.434;5.978;2023-02-01T00:49:08;31.90;30.36;34.50;;
67294;Laerm;58160;51.434;5.978;2023-02-01T00:49:19;33.67;31.02;42.31;;
67294;Laerm;58160;51.434;5.978;2023-02-01T00:49:30;33.97;31.04;46.94;;
67294;Laerm;58160;51.434;5.978;2023-02-01T00:49:40;33.86;31.14;44.07;;
67294;Laerm;58160;51.434;5.978;2023-02-01T00:49:50;31.90;30.45;33.57;;
67294;Laerm;58160;51.434;5.978;2023-02-01T00:50:00;31.56;30.60;34.08;;
67294;Laerm;58160;51.434;5.978;2023-02-01T00:50:11;31.66;29.98;35.24;;
67294;Laerm;58160;51.434;5.978;2023-02-01T00:50:21;31.75;30.08;36.36;;
67294;Laerm;58160;51.434;5.978;2023-02-01T00:50:31;31.72;30.33;32.58;;
67294;Laerm;58160;51.434;5.978;2023-02-01T00:50:42;31.67;30.23;32.77;;
67294;Laerm;58160;51.434;5.978;2023-02-01T00:50:52;33.05;30.62;39.86;;
67294;Laerm;58160;51.434;5.978;2023-02-01T00:51:04;33.01;30.82;44.00;;
67294;Laerm;58160;51.434;5.978;2023-02-01T00:51:22;36.45;31.13;49.59;;
67294;Laerm;58160;51.434;5.978;2023-02-01T00:51:33;32.95;31.33;35.95;;
67294;Laerm;58160;51.434;5.978;2023-02-01T00:51:43;47.06;31.33;61.70;;
67294;Laerm;58160;51.434;5.978;2023-02-01T00:51:53;40.43;31.82;56.44;;
67294;Laerm;58160;51.434;5.978;2023-02-01T00:52:04;40.64;31.56;51.39;;
67294;Laerm;58160;51.434;5.978;2023-02-01T00:52:14;33.00;30.56;42.70;;
67294;Laerm;58160;51.434;5.978;2023-02-01T00:52:25;32.25;30.35;37.89;;
67294;Laerm;58160;51.434;5.978;2023-02-01T00:52:35;33.04;30.95;37.92;;
67294;Laerm;58160;51.434;5.978;2023-02-01T00:52:45;33.43;31.19;39.00;;
67294;Laerm;58160;51.434;5.978;2023-02-01T00:52:56;32.80;30.92;38.47;;
67294;Laerm;58160;51.434;5.978;2023-02-01T00:53:06;32.24;30.56;35.02;;
67294;Laerm;58160;51.434;5.978;2023-02-01T00:53:16;35.84;30.94;50.44;;
67294;Laerm;58160;51.434;5.978;2023-02-01T00:53:27;35.56;31.03;44.33;;
67294;Laerm;58160;51.434;5.978;2023-02-01T00:53:38;35.90;31.48;47.10;;
67294;Laerm;58160;51.434;5.978;2023-02-01T00:53:48;33.96;30.92;41.89;;
67294;Laerm;58160;51.434;5.978;2023-02-01T00:53:59;36.12;30.73;46.46;;
67294;Laerm;58160;51.434;5.978;2023-02-01T00:54:09;38.92;31.37;50.89;;
67294;Laerm;58160;51.434;5.978;2023-02-01T00:54:19;32.68;31.01;36.65;;
67294;Laerm;58160;51.434;5.978;2023-02-01T00:54:30;32.99;30.61;42.74;;
67294;Laerm;58160;51.434;5.978;2023-02-01T00:54:40;33.76;30.36;43.69;;
67294;Laerm;58160;51.434;5.978;2023-02-01T00:54:50;33.27;31.20;40.86;;
67294;Laerm;58160;51.434;5.978;2023-02-01T00:55:01;33.77;31.48;38.67;;
67294;Laerm;58160;51.434;5.978;2023-02-01T00:55:11;33.68;31.41;40.04;;
67294;Laerm;58160;51.434;5.978;2023-02-01T00:55:21;33.79;31.40;42.43;;
67294;Laerm;58160;51.434;5.978;2023-02-01T00:55:32;32.24;30.87;34.12;;
67294;Laerm;58160;51.434;5.978;2023-02-01T00:55:45;33.91;31.11;44.72;;
67294;Laerm;58160;51.434;5.978;2023-02-01T00:55:56;31.81;30.50;32.99;;
67294;Laerm;58160;51.434;5.978;2023-02-01T00:56:07;34.64;30.70;45.20;;
67294;Laerm;58160;51.434;5.978;2023-02-01T00:56:17;38.77;31.79;52.67;;
67294;Laerm;58160;51.434;5.978;2023-02-01T00:56:28;32.88;30.95;35.98;;
67294;Laerm;58160;51.434;5.978;2023-02-01T00:56:38;31.94;30.69;33.51;;
67294;Laerm;58160;51.434;5.978;2023-02-01T00:56:48;32.72;31.10;37.78;;
67294;Laerm;58160;51.434;5.978;2023-02-01T00:56:59;48.00;31.90;59.11;;
67294;Laerm;58160;51.434;5.978;2023-02-01T00:57:09;45.52;32.52;59.26;;
67294;Laerm;58160;51.434;5.978;2023-02-01T00:57:19;34.32;31.21;41.21;;
67294;Laerm;58160;51.434;5.978;2023-02-01T00:57:30;33.36;31.49;38.80;;
67294;Laerm;58160;51.434;5.978;2023-02-01T00:57:40;38.55;31.10;50.87;;
67294;Laerm;58160;51.434;5.978;2023-02-01T00:57:50;32.48;31.10;35.62;;
67294;Laerm;58160;51.434;5.978;2023-02-01T00:58:01;32.44;30.91;37.98;;
67294;Laerm;58160;51.434;5.978;2023-02-01T00:58:11;35.06;31.56;41.64;;
67294;Laerm;58160;51.434;5.978;2023-02-01T00:58:21;41.25;31.25;55.75;;
67294;Laerm;58160;51.434;5.978;2023-02-01T00:58:34;45.07;32.03;59.20;;
67294;Laerm;58160;51.434;5.978;2023-02-01T00:58:44;33.77;30.98;43.44;;
67294;Laerm;58160;51.434;5.978;2023-02-01T00:58:55;36.36;32.21;44.69;;
67294;Laerm;58160;51.434;5.978;2023-02-01T00:59:05;34.53;31.09;46.31;;
67294;Laerm;58160;51.434;5.978;2023-02-01T00:59:15;37.73;31.51;50.31;;
67294;Laerm;58160;51.434;5.978;2023-02-01T00:59:26;40.70;32.11;52.01;;
67294;Laerm;58160;51.434;5.978;2023-02-01T00:59:36;35.61;31.94;46.35;;
67294;Laerm;58160;51.434;5.978;2023-02-01T00:59:46;50.71;32.09;62.94;;
67294;Laerm;58160;51.434;5.978;2023-02-01T00:59:56;45.85;32.18;59.82;;
67294;Laerm;58160;51.434;5.978;2023-02-01T01:00:07;39.23;31.51;49.82;;